Time;durP1;ratioP1;P1;durP2;ratioP2;P2;SDS_P1;SDS_P2;PMS_P1;PMS_P2;Temp;Humidity;BMP_temperature;BMP_pressure;BME280_temperature;BME280_humidity;BME280_pressure;Samples;Min_cycle;Max_cycle;Signal;HPM_P1;HPM_P2
2022/01/19 00:01:41;;;;;;;49.03;15.18;;;5.50;99.90;;;;;;4979496;28;20483;-83
2022/01/19 00:04:07;;;;;;;44.72;14.45;;;5.70;99.90;;;;;;4978192;28;20129;-81
2022/01/19 00:06:33;;;;;;;46.38;13.50;;;5.50;99.90;;;;;;4978052;28;20047;-81
2022/01/19 00:08:59;;;;;;;44.95;13.07;;;5.50;99.90;;;;;;4978436;28;20372;-81
2022/01/19 00:11:26;;;;;;;35.90;12.45;;;5.40;99.90;;;;;;4979359;28;20029;-82
2022/01/19 00:13:52;;;;;;;48.45;14.07;;;5.30;99.90;;;;;;4992353;28;20077;-82
2022/01/19 00:16:18;;;;;;;43.17;13.40;;;5.20;99.90;;;;;;4979666;28;20038;-82
2022/01/19 00:18:44;;;;;;;48.88;14.15;;;5.20;99.90;;;;;;4980079;28;20086;-82
2022/01/19 00:21:10;;;;;;;39.03;13.63;;;5.20;99.90;;;;;;4978074;28;20031;-82
2022/01/19 00:23:37;;;;;;;37.92;13.57;;;5.10;99.90;;;;;;4977143;28;20054;-82
2022/01/19 00:26:02;;;;;;;39.25;13.70;;;5.10;99.90;;;;;;4978516;28;20043;-81
2022/01/19 00:28:28;;;;;;;47.30;14.43;;;5.10;99.90;;;;;;4978175;28;20046;-80
2022/01/19 00:30:54;;;;;;;39.03;12.88;;;5.10;99.90;;;;;;4978131;28;20125;-82
2022/01/19 00:33:20;;;;;;;41.50;13.80;;;5.00;99.90;;;;;;4978866;28;20030;-81
2022/01/19 00:35:47;;;;;;;39.65;11.88;;;4.90;99.90;;;;;;4977895;28;20038;-81
2022/01/19 00:38:13;;;;;;;40.42;13.15;;;4.80;99.90;;;;;;4977888;28;20571;-81
2022/01/19 00:40:40;;;;;;;33.05;13.25;;;4.80;99.90;;;;;;4978829;28;20125;-80
2022/01/19 00:43:06;;;;;;;44.60;13.80;;;4.80;99.90;;;;;;4977512;28;20034;-80
2022/01/19 00:45:33;;;;;;;44.20;14.23;;;4.70;99.90;;;;;;4979068;28;20062;-81
2022/01/19 00:47:58;;;;;;;42.40;14.80;;;4.70;99.90;;;;;;4974790;28;20089;-82
2022/01/19 00:50:28;;;;;;;40.58;13.48;;;4.70;99.90;;;;;;4977387;28;20082;-81
2022/01/19 00:52:54;;;;;;;43.08;13.35;;;4.60;99.90;;;;;;4977783;28;20062;-80
2022/01/19 00:55:22;;;;;;;41.78;12.00;;;4.60;99.90;;;;;;4977328;28;20105;-81
2022/01/19 00:57:48;;;;;;;32.67;11.07;;;4.70;99.90;;;;;;4978482;28;20041;-81
2022/01/19 01:00:18;;;;;;;34.35;11.98;;;4.70;99.90;;;;;;4978518;28;20387;-82
2022/01/19 01:02:43;;;;;;;37.17;13.77;;;4.60;99.90;;;;;;4977680;28;20039;-81
2022/01/19 01:05:09;;;;;;;35.65;12.57;;;4.60;99.90;;;;;;4977782;28;20039;-82
2022/01/19 01:07:38;;;;;;;45.75;13.20;;;4.50;99.90;;;;;;4977697;28;20043;-81
2022/01/19 01:10:06;;;;;;;30.52;12.18;;;4.50;99.90;;;;;;4978096;28;20522;-81
2022/01/19 01:12:47;;;;;;;40.88;12.60;;;4.40;99.90;;;;;;4977182;28;20030;-80
2022/01/19 01:15:36;;;;;;;36.33;11.50;;;4.50;99.90;;;;;;4973876;28;20121;-81
2022/01/19 01:20:35;;;;;;;57.67;13.50;;;4.40;99.90;;;;;;4977421;28;20154;-82
2022/01/19 01:23:02;;;;;;;37.13;13.30;;;4.40;99.90;;;;;;4980625;28;20043;-82
2022/01/19 01:25:27;;;;;;;42.67;13.32;;;4.40;99.90;;;;;;4982965;28;20499;-82
2022/01/19 01:27:53;;;;;;;43.72;13.48;;;4.40;99.90;;;;;;4982386;28;20046;-82
2022/01/19 01:30:19;;;;;;;42.78;13.65;;;4.40;99.90;;;;;;4981056;28;20034;-82
2022/01/19 01:32:47;;;;;;;43.28;13.40;;;4.40;99.90;;;;;;4980766;28;20018;-82
2022/01/19 01:35:12;;;;;;;47.45;14.38;;;4.40;99.90;;;;;;4984247;28;20031;-81
2022/01/19 01:37:38;;;;;;;45.72;13.00;;;4.50;99.90;;;;;;4983710;28;20026;-81
2022/01/19 01:40:07;;;;;;;42.15;13.32;;;4.40;99.90;;;;;;4983011;28;20027;-81
2022/01/19 01:42:33;;;;;;;40.58;13.32;;;4.40;99.90;;;;;;4983713;28;20070;-81
2022/01/19 01:45:01;;;;;;;42.60;12.05;;;4.50;99.90;;;;;;4984177;28;20026;-82
2022/01/19 01:47:28;;;;;;;39.28;12.73;;;4.50;99.90;;;;;;4977080;28;20394;-82
2022/01/19 01:55:09;;;;;;;37.45;11.70;;;4.50;99.90;;;;;;4978256;28;20050;-81
2022/01/19 01:57:34;;;;;;;43.33;12.60;;;4.40;99.90;;;;;;4988408;28;20114;-81
2022/01/19 02:00:00;;;;;;;39.47;13.65;;;4.30;99.90;;;;;;4991906;28;20066;-81
2022/01/19 02:02:26;;;;;;;38.25;12.82;;;4.30;99.90;;;;;;4976663;28;20023;-81
2022/01/19 02:04:51;;;;;;;43.35;12.45;;;4.30;99.90;;;;;;4977711;28;20041;-81
2022/01/19 02:09:50;;;;;;;40.83;13.00;;;4.30;99.90;;;;;;4978566;28;20066;-79
2022/01/19 02:23:38;;;;;;;34.88;12.88;;;4.60;99.90;;;;;;4935859;29;20122;-82
2022/01/19 02:26:11;;;;;;;49.08;15.02;;;4.60;99.90;;;;;;4951925;28;20035;-82
2022/01/19 02:42:04;;;;;;;54.30;15.70;;;4.50;99.90;;;;;;4982897;28;20073;-82
2022/01/19 02:46:36;;;;;;;54.15;15.23;;;4.50;99.90;;;;;;4980901;28;20605;-81
2022/01/19 02:49:50;;;;;;;37.00;14.05;;;4.50;99.90;;;;;;4981163;28;20035;-83
2022/01/19 02:52:17;;;;;;;36.60;12.98;;;4.50;99.90;;;;;;4971394;28;20082;-82
2022/01/19 02:54:44;;;;;;;44.50;14.75;;;4.50;99.90;;;;;;4982883;28;20029;-82
2022/01/19 02:57:12;;;;;;;37.20;12.95;;;4.50;99.90;;;;;;4982424;28;20058;-82
2022/01/19 03:10:26;;;;;;;40.50;13.15;;;4.50;99.90;;;;;;4969050;28;20088;-82
2022/01/19 03:12:52;;;;;;;44.20;15.23;;;4.50;99.90;;;;;;4981334;28;20122;-81
2022/01/19 03:15:18;;;;;;;33.92;13.10;;;4.50;99.90;;;;;;4981184;28;20395;-81
2022/01/19 03:17:43;;;;;;;38.03;12.82;;;4.50;99.90;;;;;;4980209;28;20162;-81
2022/01/19 03:20:10;;;;;;;41.88;13.32;;;4.50;99.90;;;;;;4982316;28;20031;-80
2022/01/19 03:22:44;;;;;;;35.10;12.70;;;4.50;99.90;;;;;;4982562;28;20117;-81
2022/01/19 03:25:12;;;;;;;49.00;14.65;;;4.50;99.90;;;;;;4981456;28;20034;-82
2022/01/19 03:27:40;;;;;;;41.83;14.13;;;4.50;99.90;;;;;;4982609;28;20030;-80
2022/01/19 03:30:07;;;;;;;34.80;12.43;;;4.60;99.90;;;;;;4981676;28;20042;-80
2022/01/19 03:32:33;;;;;;;37.92;13.65;;;4.50;99.90;;;;;;4978856;28;20031;-81
2022/01/19 03:34:59;;;;;;;50.22;13.95;;;4.50;99.90;;;;;;4982025;28;20102;-82
2022/01/19 03:37:24;;;;;;;41.72;14.80;;;4.40;99.90;;;;;;4975012;28;20024;-81
2022/01/19 03:39:50;;;;;;;38.80;14.95;;;4.40;99.90;;;;;;4966924;28;20098;-80
2022/01/19 03:42:16;;;;;;;39.45;13.60;;;4.40;99.90;;;;;;4980922;28;20035;-81
2022/01/19 03:44:41;;;;;;;40.47;14.35;;;4.30;99.90;;;;;;4982187;28;20042;-81
2022/01/19 03:47:07;;;;;;;45.38;13.13;;;4.30;99.90;;;;;;4982840;28;20094;-82
2022/01/19 03:49:34;;;;;;;31.90;13.50;;;4.30;99.90;;;;;;4979909;28;20038;-81
2022/01/19 03:52:04;;;;;;;42.78;14.30;;;4.30;99.90;;;;;;4982201;28;20038;-81
2022/01/19 03:54:32;;;;;;;42.45;14.77;;;4.20;99.90;;;;;;4980736;28;20023;-81
2022/01/19 03:56:59;;;;;;;55.17;15.05;;;4.20;99.90;;;;;;4983495;28;20019;-81
2022/01/19 03:59:24;;;;;;;48.50;16.95;;;4.20;99.90;;;;;;4984841;28;20039;-82
2022/01/19 04:01:52;;;;;;;45.08;15.05;;;4.20;99.90;;;;;;4983772;28;20057;-81
2022/01/19 04:07:07;;;;;;;51.42;15.63;;;4.30;99.90;;;;;;4984549;28;20031;-81
2022/01/19 04:09:44;;;;;;;50.27;15.47;;;4.40;99.90;;;;;;4984503;28;20090;-81
2022/01/19 04:12:14;;;;;;;42.72;15.95;;;4.40;99.90;;;;;;4967189;28;20039;-81
2022/01/19 04:14:40;;;;;;;44.35;15.43;;;4.40;99.90;;;;;;4985535;28;20063;-82
2022/01/19 04:17:11;;;;;;;56.90;18.38;;;4.40;99.90;;;;;;4983643;28;20027;-81
2022/01/19 04:22:08;;;;;;;43.80;15.55;;;4.50;99.90;;;;;;4985011;28;20034;-81
2022/01/19 04:24:35;;;;;;;44.70;15.73;;;4.50;99.90;;;;;;4985490;28;20034;-81
2022/01/19 04:29:46;;;;;;;42.28;14.98;;;4.50;99.90;;;;;;4984859;28;20099;-81
2022/01/19 04:32:17;;;;;;;44.55;15.18;;;4.60;99.90;;;;;;4982639;28;20043;-82
2022/01/19 04:34:45;;;;;;;41.67;14.55;;;4.60;99.90;;;;;;4983913;28;20023;-82
2022/01/19 05:03:57;;;;;;;37.92;14.43;;;5.00;99.90;;;;;;4980597;28;20049;-81
2022/01/19 05:06:24;;;;;;;38.67;14.82;;;5.00;99.90;;;;;;4978125;28;20042;-81
2022/01/19 05:14:09;;;;;;;38.90;13.73;;;5.10;99.90;;;;;;4979472;28;20061;-81
2022/01/19 05:16:35;;;;;;;38.10;14.02;;;5.00;99.90;;;;;;4978903;28;20030;-82
2022/01/19 05:19:00;;;;;;;39.25;14.07;;;5.00;99.90;;;;;;4978352;28;20403;-81
2022/01/19 05:21:26;;;;;;;40.55;14.15;;;5.00;99.90;;;;;;4976454;28;20039;-82
2022/01/19 05:23:52;;;;;;;43.95;14.93;;;5.10;99.90;;;;;;4962528;28;20100;-82
2022/01/19 05:26:18;;;;;;;40.13;14.38;;;5.10;99.90;;;;;;4978729;28;20102;-80
2022/01/19 05:28:44;;;;;;;45.30;15.55;;;5.10;99.90;;;;;;4978156;28;20031;-82
2022/01/19 05:31:09;;;;;;;48.35;16.80;;;5.00;99.90;;;;;;4978800;28;20030;-81
2022/01/19 05:33:35;;;;;;;47.28;14.85;;;5.10;99.90;;;;;;4979575;28;20034;-82
2022/01/19 05:36:01;;;;;;;49.47;16.38;;;5.10;99.90;;;;;;4977889;28;20054;-81
2022/01/19 05:38:27;;;;;;;52.58;17.48;;;5.10;99.90;;;;;;4978285;28;20038;-83
2022/01/19 05:40:54;;;;;;;46.17;16.25;;;5.20;99.90;;;;;;4980039;28;20093;-81
2022/01/19 05:43:20;;;;;;;48.08;17.40;;;5.20;99.90;;;;;;4982447;28;20046;-81
2022/01/19 05:45:46;;;;;;;52.35;16.95;;;5.20;99.90;;;;;;5000119;28;20026;-80
2022/01/19 05:48:12;;;;;;;54.10;16.77;;;5.30;99.90;;;;;;5000480;28;20039;-79
2022/01/19 05:50:37;;;;;;;53.30;17.10;;;5.30;99.90;;;;;;4999777;28;20038;-81
2022/01/19 05:53:04;;;;;;;49.78;15.63;;;5.30;99.90;;;;;;5000347;28;20034;-81
2022/01/19 05:55:30;;;;;;;46.58;15.75;;;5.20;99.90;;;;;;4999663;28;20018;-80
2022/01/19 05:57:55;;;;;;;43.90;16.23;;;5.20;99.90;;;;;;5000194;28;20022;-80
2022/01/19 06:00:22;;;;;;;43.95;15.95;;;5.20;99.90;;;;;;4999905;28;20046;-81
2022/01/19 06:02:49;;;;;;;44.22;17.35;;;5.10;99.90;;;;;;4983583;28;20025;-81
2022/01/19 06:05:15;;;;;;;48.08;16.25;;;5.20;99.90;;;;;;5000179;28;20055;-82
2022/01/19 06:07:46;;;;;;;55.75;17.30;;;5.20;99.90;;;;;;4999593;28;20015;-81
2022/01/19 06:10:42;;;;;;;44.28;16.88;;;5.20;99.90;;;;;;4999559;28;20242;-81
2022/01/19 06:12:59;;;;;;;46.35;14.77;;;5.20;99.90;;;;;;5000038;28;20063;-81
2022/01/19 06:15:24;;;;;;;44.28;14.98;;;5.10;99.90;;;;;;4998820;28;20031;-81
2022/01/19 06:17:50;;;;;;;49.25;16.00;;;5.10;99.90;;;;;;5000171;28;20018;-80
2022/01/19 06:20:16;;;;;;;45.80;16.33;;;5.10;99.90;;;;;;4999011;28;20034;-80
2022/01/19 06:22:42;;;;;;;48.25;16.55;;;5.10;99.90;;;;;;4999299;28;20035;-81
2022/01/19 06:25:08;;;;;;;42.65;14.38;;;5.00;99.90;;;;;;4999133;28;20119;-82
2022/01/19 06:27:33;;;;;;;39.63;14.93;;;5.00;99.90;;;;;;4999083;28;20038;-82
2022/01/19 06:29:59;;;;;;;40.15;16.55;;;5.00;99.90;;;;;;4996043;28;20018;-81
2022/01/19 06:32:25;;;;;;;43.95;15.68;;;5.00;99.90;;;;;;4999842;28;20021;-81
2022/01/19 06:34:50;;;;;;;45.03;16.15;;;5.00;99.90;;;;;;4999497;28;20034;-80
2022/01/19 06:37:20;;;;;;;46.58;14.98;;;5.00;99.90;;;;;;4999474;28;20019;-81
2022/01/19 06:39:46;;;;;;;36.30;14.43;;;5.00;99.90;;;;;;4998758;28;20026;-81
2022/01/19 06:42:11;;;;;;;38.80;15.57;;;5.10;99.90;;;;;;4998311;28;20066;-80
2022/01/19 06:44:37;;;;;;;37.60;15.45;;;5.00;99.90;;;;;;4998935;28;20047;-81
2022/01/19 06:47:03;;;;;;;48.97;15.43;;;5.00;99.90;;;;;;4997813;28;20027;-82
2022/01/19 06:49:29;;;;;;;45.35;14.73;;;5.00;99.90;;;;;;4998059;28;20045;-80
2022/01/19 06:51:55;;;;;;;48.28;15.73;;;5.00;99.90;;;;;;4997051;28;20037;-81
2022/01/19 06:54:20;;;;;;;43.30;14.57;;;5.00;99.90;;;;;;4989497;28;20035;-82
2022/01/19 06:56:46;;;;;;;45.25;16.55;;;5.00;99.90;;;;;;4985606;28;20055;-81
2022/01/19 06:59:12;;;;;;;43.40;15.85;;;5.00;99.90;;;;;;4984792;28;20178;-82
2022/01/19 07:01:37;;;;;;;48.33;16.48;;;5.00;99.90;;;;;;4985017;28;20015;-83
2022/01/19 07:04:06;;;;;;;40.13;15.65;;;5.00;99.90;;;;;;4983835;28;20090;-82
2022/01/19 07:06:32;;;;;;;47.75;16.00;;;5.00;99.90;;;;;;4982089;28;20058;-81
2022/01/19 07:08:58;;;;;;;57.45;17.13;;;5.00;99.90;;;;;;4980884;28;20488;-81
2022/01/19 07:11:24;;;;;;;50.10;18.17;;;5.10;99.90;;;;;;4982006;28;20031;-81
2022/01/19 07:13:49;;;;;;;60.90;16.27;;;5.10;99.90;;;;;;4982032;28;20391;-82
2022/01/19 07:16:16;;;;;;;47.50;16.02;;;5.10;99.90;;;;;;4980339;28;20031;-81
2022/01/19 07:18:42;;;;;;;50.67;17.02;;;5.00;99.90;;;;;;4983098;28;20023;-82
2022/01/19 07:21:07;;;;;;;60.35;17.05;;;5.00;99.90;;;;;;4982703;28;20065;-81
2022/01/19 07:23:33;;;;;;;48.42;17.05;;;5.00;99.90;;;;;;4974632;28;20038;-82
2022/01/19 07:25:58;;;;;;;53.47;17.42;;;5.00;99.90;;;;;;4981844;28;20123;-81
2022/01/19 07:28:24;;;;;;;52.47;17.08;;;5.10;99.90;;;;;;4982930;28;20095;-81
2022/01/19 07:30:50;;;;;;;41.45;15.05;;;5.10;99.90;;;;;;4982891;28;20113;-82
2022/01/19 07:33:18;;;;;;;49.65;17.08;;;5.10;99.90;;;;;;4984071;28;20046;-82
2022/01/19 07:35:45;;;;;;;49.88;17.33;;;5.10;99.90;;;;;;4986070;28;20029;-81
2022/01/19 07:38:12;;;;;;;47.40;19.17;;;5.20;99.90;;;;;;4984125;28;20034;-82
2022/01/19 07:40:38;;;;;;;42.85;15.50;;;5.20;99.90;;;;;;4983769;28;20025;-82
2022/01/19 07:43:03;;;;;;;53.97;18.38;;;5.10;99.90;;;;;;4982703;28;20055;-81
2022/01/19 07:45:29;;;;;;;51.40;17.33;;;5.10;99.90;;;;;;4982446;28;20038;-81
2022/01/19 07:47:55;;;;;;;48.25;15.73;;;5.00;99.90;;;;;;4984002;28;20054;-81
2022/01/19 07:50:20;;;;;;;46.45;16.92;;;5.00;99.90;;;;;;4984321;28;20387;-81
2022/01/19 07:52:46;;;;;;;46.85;17.25;;;5.00;99.90;;;;;;4985042;28;20387;-82
2022/01/19 07:55:12;;;;;;;40.70;17.20;;;5.10;99.90;;;;;;4982303;28;20037;-81
2022/01/19 07:57:40;;;;;;;40.13;15.55;;;5.10;99.90;;;;;;4977747;28;20030;-82
2022/01/19 08:00:07;;;;;;;46.08;16.20;;;5.20;99.90;;;;;;4981019;28;20023;-82
2022/01/19 08:02:34;;;;;;;46.05;17.25;;;5.20;99.90;;;;;;4982138;28;20063;-82
2022/01/19 08:05:00;;;;;;;42.75;16.35;;;5.20;99.90;;;;;;4982385;28;20022;-80
2022/01/19 08:07:25;;;;;;;46.40;16.42;;;5.20;99.90;;;;;;4979077;28;20035;-82
2022/01/19 08:09:51;;;;;;;41.83;17.83;;;5.20;99.90;;;;;;4983702;28;20027;-81
2022/01/19 08:12:17;;;;;;;51.28;17.70;;;5.20;99.90;;;;;;4982339;28;20030;-83
2022/01/19 08:14:43;;;;;;;44.28;16.65;;;5.20;99.90;;;;;;4983055;28;20027;-82
2022/01/19 08:17:08;;;;;;;50.88;17.02;;;5.20;99.90;;;;;;4980111;28;20047;-82
2022/01/19 08:19:34;;;;;;;53.92;16.77;;;5.20;99.90;;;;;;4981619;28;20061;-83
2022/01/19 08:22:00;;;;;;;53.88;16.80;;;5.20;99.90;;;;;;4983691;28;20082;-82
2022/01/19 08:24:25;;;;;;;42.17;16.13;;;5.20;99.90;;;;;;4983923;28;20039;-82
2022/01/19 08:26:54;;;;;;;46.47;18.00;;;5.20;99.90;;;;;;4982286;28;20070;-82
2022/01/19 08:29:20;;;;;;;46.50;16.23;;;5.20;99.90;;;;;;4982632;28;20023;-82
2022/01/19 08:31:45;;;;;;;49.03;18.08;;;5.20;99.90;;;;;;4984324;28;20541;-82
2022/01/19 08:34:11;;;;;;;52.20;18.83;;;5.30;99.90;;;;;;4983928;28;20038;-82
2022/01/19 08:36:38;;;;;;;49.83;18.42;;;5.20;99.90;;;;;;4982575;28;20098;-82
2022/01/19 08:39:04;;;;;;;55.13;16.55;;;5.20;99.90;;;;;;4982239;28;20019;-81
2022/01/19 08:41:30;;;;;;;45.08;15.90;;;5.20;99.90;;;;;;4981045;28;20114;-82
2022/01/19 08:43:56;;;;;;;47.88;17.95;;;5.30;99.90;;;;;;4983658;28;20525;-82
2022/01/19 08:46:22;;;;;;;51.28;18.42;;;5.30;99.90;;;;;;4981979;28;20027;-82
2022/01/19 08:48:47;;;;;;;48.88;17.58;;;5.30;99.90;;;;;;4983685;28;20043;-83
2022/01/19 08:51:13;;;;;;;47.17;18.25;;;5.30;99.90;;;;;;4982290;28;20038;-83
2022/01/19 08:53:40;;;;;;;47.55;16.65;;;5.30;99.90;;;;;;4984374;28;20031;-82
2022/01/19 08:56:05;;;;;;;50.45;17.20;;;5.30;99.90;;;;;;4981681;28;20126;-82
2022/01/19 08:58:31;;;;;;;48.08;17.33;;;5.40;99.90;;;;;;4981319;28;20074;-81
2022/01/19 09:00:57;;;;;;;45.13;16.25;;;5.40;99.90;;;;;;4982173;28;20038;-81
2022/01/19 09:03:23;;;;;;;53.65;17.58;;;5.40;99.90;;;;;;4980167;28;20023;-81
2022/01/19 09:05:48;;;;;;;57.88;18.35;;;5.30;99.90;;;;;;4972594;28;20058;-82
2022/01/19 09:08:14;;;;;;;42.65;14.85;;;5.30;99.90;;;;;;4974599;28;20031;-82
2022/01/19 09:10:41;;;;;;;50.28;16.92;;;5.30;99.90;;;;;;4975118;28;20096;-83
2022/01/19 09:13:09;;;;;;;51.53;17.77;;;5.30;99.90;;;;;;4976553;28;20033;-82
2022/01/19 09:15:35;;;;;;;50.70;17.25;;;5.30;99.90;;;;;;4975102;28;20268;-82
2022/01/19 09:18:01;;;;;;;50.05;18.00;;;5.40;99.90;;;;;;4974318;28;20384;-80
2022/01/19 09:20:27;;;;;;;45.80;17.58;;;5.40;99.90;;;;;;4974831;28;20027;-80
2022/01/19 09:22:54;;;;;;;54.13;17.98;;;5.40;99.90;;;;;;4975116;28;20174;-83
2022/01/19 09:25:20;;;;;;;44.15;15.32;;;5.40;99.90;;;;;;4977123;28;20586;-83
2022/01/19 09:27:46;;;;;;;46.45;17.10;;;5.50;99.90;;;;;;4974944;28;20113;-82
2022/01/19 09:30:17;;;;;;;46.35;16.17;;;5.50;99.90;;;;;;4976276;28;20030;-82
2022/01/19 09:32:45;;;;;;;47.13;17.50;;;5.40;99.90;;;;;;4975988;28;20035;-82
2022/01/19 09:35:12;;;;;;;47.83;16.50;;;5.40;99.90;;;;;;4975160;28;20641;-81
2022/01/19 09:37:39;;;;;;;47.58;18.65;;;5.40;99.90;;;;;;4976516;28;20102;-82
2022/01/19 09:40:07;;;;;;;52.65;18.77;;;5.50;99.90;;;;;;4974930;28;20496;-81
2022/01/19 09:42:34;;;;;;;60.03;18.02;;;5.50;99.90;;;;;;4975700;28;20039;-80
2022/01/19 09:45:00;;;;;;;49.10;17.83;;;5.40;99.90;;;;;;4974984;28;20102;-83
2022/01/19 09:47:26;;;;;;;55.83;18.38;;;5.40;99.90;;;;;;4974386;28;20031;-81
2022/01/19 09:49:52;;;;;;;54.67;18.63;;;5.40;99.90;;;;;;4976160;28;20034;-81
2022/01/19 09:52:17;;;;;;;64.70;18.38;;;5.40;99.90;;;;;;4975720;28;20414;-80
2022/01/19 09:54:43;;;;;;;54.58;18.48;;;5.40;99.90;;;;;;4974792;28;20380;-82
2022/01/19 09:57:08;;;;;;;51.20;18.23;;;5.40;99.90;;;;;;4976081;28;20023;-83
2022/01/19 09:59:34;;;;;;;50.20;18.25;;;5.40;99.90;;;;;;4975436;28;20484;-82
2022/01/19 10:02:05;;;;;;;50.15;18.67;;;5.40;99.90;;;;;;4975385;28;20023;-83
2022/01/19 10:04:36;;;;;;;53.60;19.08;;;5.40;99.90;;;;;;4975737;28;20389;-84
2022/01/19 10:07:18;;;;;;;44.35;17.40;;;5.40;99.90;;;;;;4974312;28;20054;-80
2022/01/19 10:09:57;;;;;;;55.75;17.38;;;5.40;99.90;;;;;;4975996;28;20054;-82
2022/01/19 10:18:05;;;;;;;53.83;17.05;;;5.30;99.90;;;;;;4976438;28;20090;-83
2022/01/19 10:20:32;;;;;;;43.38;17.13;;;5.30;99.90;;;;;;4974252;28;20491;-82
2022/01/19 10:22:57;;;;;;;44.58;16.73;;;5.40;99.90;;;;;;4971847;28;20603;-80
2022/01/19 10:25:23;;;;;;;44.75;16.83;;;5.40;99.90;;;;;;4974299;28;20098;-79
2022/01/19 10:27:49;;;;;;;41.55;16.95;;;5.50;99.90;;;;;;4974565;28;20423;-79
2022/01/19 10:30:24;;;;;;;45.58;17.38;;;5.50;99.90;;;;;;4974947;28;20031;-79
2022/01/19 10:32:59;;;;;;;37.58;15.20;;;5.40;99.90;;;;;;4973483;28;20031;-79
2022/01/19 10:35:37;;;;;;;40.55;15.60;;;5.50;99.90;;;;;;4973236;28;20030;-79
2022/01/19 10:38:25;;;;;;;43.15;15.60;;;5.50;99.90;;;;;;4974403;28;20061;-80
2022/01/19 10:40:54;;;;;;;40.17;15.95;;;5.50;99.90;;;;;;4971758;28;20101;-79
2022/01/19 10:43:38;;;;;;;41.35;15.80;;;5.50;99.90;;;;;;4974403;28;20089;-79
2022/01/19 10:46:16;;;;;;;41.15;16.55;;;5.50;99.90;;;;;;4973950;28;20033;-80
2022/01/19 10:48:43;;;;;;;38.63;15.63;;;5.50;99.90;;;;;;4974422;28;20546;-80
2022/01/19 10:51:20;;;;;;;42.97;15.82;;;5.50;99.90;;;;;;4973407;28;20038;-80
2022/01/19 10:54:05;;;;;;;40.00;16.85;;;5.40;99.90;;;;;;4972799;28;20462;-79
2022/01/19 10:56:32;;;;;;;37.28;15.27;;;5.40;99.90;;;;;;4970055;28;20038;-79
2022/01/19 10:59:13;;;;;;;42.33;14.63;;;5.50;99.90;;;;;;4972535;28;20027;-79
2022/01/19 11:01:53;;;;;;;39.42;15.73;;;5.50;99.90;;;;;;4973290;28;20043;-79
2022/01/19 11:04:20;;;;;;;36.13;15.45;;;5.50;99.90;;;;;;4970003;28;20043;-79
2022/01/19 11:06:48;;;;;;;42.65;16.23;;;5.50;99.90;;;;;;4977622;28;20023;-78
2022/01/19 11:09:15;;;;;;;38.70;16.00;;;5.50;99.90;;;;;;4978065;28;20143;-79
2022/01/19 11:11:44;;;;;;;39.22;14.93;;;5.60;99.90;;;;;;4971214;28;20043;-78
2022/01/19 11:14:15;;;;;;;37.88;16.20;;;5.60;99.90;;;;;;4966763;28;20019;-79
2022/01/19 11:16:42;;;;;;;40.03;16.45;;;5.70;99.90;;;;;;4978430;28;20050;-78
2022/01/19 11:19:09;;;;;;;37.42;15.88;;;5.70;99.90;;;;;;4977139;28;20015;-78
2022/01/19 11:21:51;;;;;;;40.47;16.42;;;5.80;99.90;;;;;;4978216;28;20035;-79
2022/01/19 11:24:31;;;;;;;44.45;16.45;;;5.80;99.90;;;;;;4977588;28;20527;-81
2022/01/19 11:26:58;;;;;;;39.90;17.20;;;5.90;99.90;;;;;;4975218;28;20023;-80
2022/01/19 11:29:25;;;;;;;44.90;18.23;;;5.90;99.90;;;;;;4976695;28;20118;-80
2022/01/19 11:31:53;;;;;;;41.17;16.85;;;6.00;99.90;;;;;;4970717;28;20027;-79
2022/01/19 11:34:57;;;;;;;45.47;17.13;;;5.90;99.90;;;;;;4970528;28;20548;-80
2022/01/19 11:37:42;;;;;;;32.70;14.88;;;6.00;99.90;;;;;;4958555;29;20042;-78
2022/01/19 11:40:16;;;;;;;41.30;16.20;;;6.10;99.90;;;;;;4954362;28;20031;-80
2022/01/19 11:42:43;;;;;;;43.65;17.85;;;6.10;99.90;;;;;;4974123;28;20047;-80
2022/01/19 11:45:29;;;;;;;40.50;16.92;;;6.20;99.90;;;;;;4969493;28;20023;-79
2022/01/19 11:48:15;;;;;;;39.63;16.20;;;6.30;99.90;;;;;;4979949;28;20046;-80
2022/01/19 11:50:41;;;;;;;40.05;17.10;;;6.40;99.90;;;;;;4977312;28;20026;-80
2022/01/19 11:53:11;;;;;;;39.15;15.45;;;6.40;99.90;;;;;;4971616;28;20027;-80
2022/01/19 11:55:42;;;;;;;44.80;16.63;;;6.40;99.90;;;;;;4972746;28;20019;-80
2022/01/19 11:58:20;;;;;;;44.78;17.35;;;6.40;99.90;;;;;;4977962;28;20047;-80
2022/01/19 12:00:47;;;;;;;;;;;6.50;99.90;;;;;;4974912;28;20083;-79
2022/01/19 12:03:21;;;;;;;32.42;16.05;;;6.50;99.90;;;;;;4970720;28;19910;-80
2022/01/19 12:05:51;;;;;;;41.22;16.52;;;6.50;99.90;;;;;;4978553;28;20401;-80
2022/01/19 12:08:28;;;;;;;47.05;17.40;;;6.60;99.90;;;;;;4976013;28;20094;-81
2022/01/19 12:11:13;;;;;;;41.85;15.60;;;6.60;99.90;;;;;;4971275;28;20050;-79
2022/01/19 12:16:52;;;;;;;29.20;12.48;;;6.70;99.90;;;;;;4977503;28;20049;-79
2022/01/19 12:19:07;;;;;;;45.97;17.10;;;6.70;99.90;;;;;;4964695;28;20022;-84
2022/01/19 12:21:55;;;;;;;44.47;18.40;;;6.70;99.90;;;;;;4979560;28;20463;-81
2022/01/19 12:24:56;;;;;;;38.63;17.42;;;6.70;99.90;;;;;;4980424;28;20023;-81
2022/01/19 12:27:34;;;;;;;43.75;17.77;;;6.80;99.90;;;;;;4979762;28;20472;-81
2022/01/19 12:30:17;;;;;;;37.60;17.27;;;6.80;99.90;;;;;;4975583;28;20027;-79
2022/01/19 12:32:50;;;;;;;42.40;17.02;;;6.80;99.90;;;;;;4977315;28;20402;-78
2022/01/19 12:35:22;;;;;;;34.85;15.50;;;6.80;99.90;;;;;;4969566;28;20053;-84
2022/01/19 12:37:56;;;;;;;41.65;16.02;;;6.90;99.90;;;;;;4973992;28;20023;-82
2022/01/19 12:40:27;;;;;;;35.92;16.08;;;6.90;99.90;;;;;;4973525;28;20051;-81
2022/01/19 12:42:56;;;;;;;40.90;17.38;;;6.90;99.90;;;;;;4987768;28;20046;-81
2022/01/19 12:45:27;;;;;;;36.90;16.77;;;7.00;99.90;;;;;;4992974;28;20050;-82
2022/01/19 12:47:58;;;;;;;35.35;16.48;;;6.90;99.90;;;;;;4975880;28;20038;-81
2022/01/19 12:50:32;;;;;;;37.95;17.40;;;6.90;99.90;;;;;;4996431;28;20081;-83
2022/01/19 12:53:01;;;;;;;37.30;16.88;;;6.90;99.90;;;;;;4995364;28;20031;-82
2022/01/19 12:55:34;;;;;;;45.95;16.50;;;6.90;99.90;;;;;;4995686;28;20050;-81
2022/01/19 12:58:07;;;;;;;36.63;17.25;;;6.90;99.90;;;;;;4998440;28;20023;-82
2022/01/19 13:00:34;;;;;;;38.55;16.58;;;6.90;99.90;;;;;;4986053;28;20099;-82
2022/01/19 13:03:11;;;;;;;44.25;18.42;;;6.80;99.90;;;;;;4992546;28;20054;-82
2022/01/19 13:05:48;;;;;;;42.55;17.08;;;6.70;99.90;;;;;;5000464;28;20033;-83
2022/01/19 13:08:28;;;;;;;38.70;17.13;;;6.80;99.90;;;;;;5000252;28;20078;-82
2022/01/19 13:11:01;;;;;;;37.58;15.00;;;6.80;99.90;;;;;;5001265;28;20035;-81
2022/01/19 13:13:28;;;;;;;41.15;16.33;;;6.80;99.90;;;;;;5001038;28;20026;-81
2022/01/19 13:15:59;;;;;;;36.88;16.10;;;6.80;99.90;;;;;;5000952;28;20039;-81
2022/01/19 13:18:44;;;;;;;42.30;17.13;;;6.80;99.90;;;;;;5001147;28;20031;-79
2022/01/19 13:21:16;;;;;;;35.17;15.55;;;6.80;99.90;;;;;;5001195;28;20050;-81
2022/01/19 13:24:06;;;;;;;41.60;17.67;;;6.80;99.90;;;;;;5001044;28;20034;-79
2022/01/19 13:26:41;;;;;;;45.70;18.67;;;6.80;99.90;;;;;;5011303;28;20064;-83
2022/01/19 13:29:22;;;;;;;39.38;16.80;;;6.90;99.90;;;;;;5012728;28;20011;-82
2022/01/19 13:32:04;;;;;;;37.35;15.07;;;6.90;99.90;;;;;;5001012;28;20042;-82
2022/01/19 13:34:34;;;;;;;45.70;17.02;;;6.90;99.90;;;;;;5001050;28;20023;-80
2022/01/19 13:37:01;;;;;;;32.85;15.45;;;6.80;99.90;;;;;;4995133;28;20178;-81
2022/01/19 13:39:31;;;;;;;44.30;16.38;;;6.80;99.90;;;;;;4990816;28;20035;-80
2022/01/19 13:41:58;;;;;;;34.72;14.57;;;6.80;99.90;;;;;;4998516;28;20023;-81
2022/01/19 13:44:32;;;;;;;40.33;16.77;;;6.90;99.90;;;;;;4999509;28;20034;-82
2022/01/19 13:47:30;;;;;;;32.60;15.10;;;6.90;99.90;;;;;;4998796;28;20054;-81
2022/01/19 13:49:55;;;;;;;35.40;15.25;;;6.80;99.90;;;;;;4998908;28;20021;-80
2022/01/19 13:52:24;;;;;;;37.70;16.35;;;6.90;99.90;;;;;;4995430;28;20046;-80
2022/01/19 13:54:50;;;;;;;35.38;15.75;;;6.80;99.90;;;;;;4993995;28;20022;-82
2022/01/19 13:57:29;;;;;;;42.03;16.95;;;6.80;99.90;;;;;;4992358;28;20241;-84
2022/01/19 14:00:18;;;;;;;38.45;16.20;;;6.80;99.90;;;;;;4996127;28;20067;-83
2022/01/19 14:03:00;;;;;;;42.88;15.68;;;6.80;99.90;;;;;;4969609;28;20031;-83
2022/01/19 14:05:53;;;;;;;39.13;15.73;;;6.80;99.90;;;;;;4974938;28;20063;-84
2022/01/19 14:08:33;;;;;;;46.38;16.58;;;6.80;99.90;;;;;;4975914;28;20077;-84
2022/01/19 14:11:00;;;;;;;42.30;16.38;;;6.80;99.90;;;;;;4979345;28;20126;-83
2022/01/19 14:13:29;;;;;;;36.80;15.60;;;6.80;99.90;;;;;;4975932;28;20058;-85
2022/01/19 14:16:43;;;;;;;31.10;14.98;;;6.90;99.90;;;;;;4969443;28;20027;-84
2022/01/19 14:19:12;;;;;;;38.17;15.60;;;6.80;99.90;;;;;;4955112;28;20126;-84
2022/01/19 14:22:03;;;;;;;43.30;15.85;;;6.80;99.90;;;;;;4975803;28;20089;-83
2022/01/19 14:24:47;;;;;;;39.55;14.93;;;6.80;99.90;;;;;;4975353;28;20062;-86
2022/01/19 14:27:15;;;;;;;34.92;13.10;;;6.80;99.90;;;;;;4975780;28;20062;-83